sensor_id;sensor_type;location;lat;lon;timestamp;pressure;altitude;pressure_sealevel;temperature;humidity
75208;BME280;63795;55.684;37.864;2023-07-13T00:04:25;98913.47;;;13.10;68.31
75208;BME280;63795;55.684;37.864;2023-07-13T00:09:26;98908.50;;;13.14;68.14
75208;BME280;63795;55.684;37.864;2023-07-13T00:14:28;98907.56;;;13.17;68.12
75208;BME280;63795;55.684;37.864;2023-07-13T00:19:29;98914.06;;;13.17;67.92
75208;BME280;63795;55.684;37.864;2023-07-13T00:24:29;98907.94;;;13.19;68.12
75208;BME280;63795;55.684;37.864;2023-07-13T00:29:30;98910.69;;;13.22;67.85
75208;BME280;63795;55.684;37.864;2023-07-13T00:34:30;98906.94;;;13.25;68.09
75208;BME280;63795;55.684;37.864;2023-07-13T00:39:31;98916.28;;;13.26;68.22
75208;BME280;63795;55.684;37.864;2023-07-13T00:44:32;98899.66;;;13.24;68.49
75208;BME280;63795;55.684;37.864;2023-07-13T00:49:35;98911.31;;;13.30;68.08
75208;BME280;63795;55.684;37.864;2023-07-13T00:54:39;98916.09;;;13.33;68.46
75208;BME280;63795;55.684;37.864;2023-07-13T00:59:43;98908.81;;;13.32;68.01
75208;BME280;63795;55.684;37.864;2023-07-13T01:04:45;98899.81;;;13.33;68.22
75208;BME280;63795;55.684;37.864;2023-07-13T01:09:46;98907.81;;;13.38;68.05
75208;BME280;63795;55.684;37.864;2023-07-13T01:14:46;98902.19;;;13.35;68.44
75208;BME280;63795;55.684;37.864;2023-07-13T01:19:47;98902.19;;;13.35;68.75
75208;BME280;63795;55.684;37.864;2023-07-13T01:24:47;98894.00;;;13.37;67.85
75208;BME280;63795;55.684;37.864;2023-07-13T01:29:48;98892.22;;;13.43;68.13
75208;BME280;63795;55.684;37.864;2023-07-13T01:34:51;98891.31;;;13.46;68.30
75208;BME280;63795;55.684;37.864;2023-07-13T01:39:54;98884.03;;;13.45;68.24
75208;BME280;63795;55.684;37.864;2023-07-13T01:44:54;98885.75;;;13.42;68.58
75208;BME280;63795;55.684;37.864;2023-07-13T01:49:55;98897.03;;;13.46;67.93
75208;BME280;63795;55.684;37.864;2023-07-13T01:54:55;98882.53;;;13.40;68.41
75208;BME280;63795;55.684;37.864;2023-07-13T01:59:56;98881.75;;;13.40;69.04
75208;BME280;63795;55.684;37.864;2023-07-13T02:04:56;98873.53;;;13.42;68.15
75208;BME280;63795;55.684;37.864;2023-07-13T02:09:57;98879.13;;;13.45;68.80
75208;BME280;63795;55.684;37.864;2023-07-13T02:14:57;98881.63;;;13.43;68.87
75208;BME280;63795;55.684;37.864;2023-07-13T02:19:58;98871.06;;;13.44;69.27
75208;BME280;63795;55.684;37.864;2023-07-13T02:24:58;98880.75;;;13.46;68.13
75208;BME280;63795;55.684;37.864;2023-07-13T02:29:59;98861.81;;;13.40;68.31
75208;BME280;63795;55.684;37.864;2023-07-13T02:34:59;98868.66;;;13.42;69.18
75208;BME280;63795;55.684;37.864;2023-07-13T02:40:00;98863.50;;;13.37;69.52
75208;BME280;63795;55.684;37.864;2023-07-13T02:45:00;98856.66;;;13.35;69.96
75208;BME280;63795;55.684;37.864;2023-07-13T02:50:01;98871.22;;;13.37;69.29
75208;BME280;63795;55.684;37.864;2023-07-13T02:55:02;98863.72;;;13.30;69.95
75208;BME280;63795;55.684;37.864;2023-07-13T03:00:04;98866.91;;;13.32;70.45
75208;BME280;63795;55.684;37.864;2023-07-13T03:05:08;98858.25;;;13.36;69.46
75208;BME280;63795;55.684;37.864;2023-07-13T03:10:12;98851.22;;;13.40;69.07
75208;BME280;63795;55.684;37.864;2023-07-13T03:15:13;98857.34;;;13.39;69.47
75208;BME280;63795;55.684;37.864;2023-07-13T03:20:13;98856.56;;;13.38;69.53
75208;BME280;63795;55.684;37.864;2023-07-13T03:25:14;98855.78;;;13.38;70.23
75208;BME280;63795;55.684;37.864;2023-07-13T03:30:15;98851.88;;;13.32;69.90
75208;BME280;63795;55.684;37.864;2023-07-13T03:35:16;98864.31;;;13.38;69.86
75208;BME280;63795;55.684;37.864;2023-07-13T03:40:17;98867.63;;;13.36;69.63
75208;BME280;63795;55.684;37.864;2023-07-13T03:45:18;98872.75;;;13.41;70.91
75208;BME280;63795;55.684;37.864;2023-07-13T03:50:19;98871.06;;;13.44;70.53
75208;BME280;63795;55.684;37.864;2023-07-13T03:55:19;98867.75;;;13.45;70.36
75208;BME280;63795;55.684;37.864;2023-07-13T04:00:20;98867.84;;;13.42;70.68
75208;BME280;63795;55.684;37.864;2023-07-13T04:05:20;98871.41;;;13.46;70.68
75208;BME280;63795;55.684;37.864;2023-07-13T04:10:21;98874.94;;;13.50;70.44
75208;BME280;63795;55.684;37.864;2023-07-13T04:15:21;98861.88;;;13.52;70.78
75208;BME280;63795;55.684;37.864;2023-07-13T04:20:22;98874.19;;;13.62;70.12
75208;BME280;63795;55.684;37.864;2023-07-13T04:25:22;98882.16;;;13.67;69.93
75208;BME280;63795;55.684;37.864;2023-07-13T04:30:23;98866.22;;;13.70;69.92
75208;BME280;63795;55.684;37.864;2023-07-13T04:35:23;98874.56;;;13.77;69.82
75208;BME280;63795;55.684;37.864;2023-07-13T04:40:26;98874.91;;;13.79;70.17
75208;BME280;63795;55.684;37.864;2023-07-13T04:45:27;98869.44;;;13.84;70.70
75208;BME280;63795;55.684;37.864;2023-07-13T04:50:28;98876.38;;;13.83;70.21
75208;BME280;63795;55.684;37.864;2023-07-13T04:55:28;98876.88;;;13.94;70.14
75208;BME280;63795;55.684;37.864;2023-07-13T05:00:31;98879.16;;;13.99;70.23
75208;BME280;63795;55.684;37.864;2023-07-13T05:05:31;98871.28;;;14.03;70.28
75208;BME280;63795;55.684;37.864;2023-07-13T05:10:32;98876.44;;;14.08;70.13
75208;BME280;63795;55.684;37.864;2023-07-13T05:15:33;98880.22;;;14.18;69.68
75208;BME280;63795;55.684;37.864;2023-07-13T05:20:34;98878.84;;;14.22;69.44
75208;BME280;63795;55.684;37.864;2023-07-13T05:25:34;98880.34;;;14.39;69.96
75208;BME280;63795;55.684;37.864;2023-07-13T05:30:35;98875.78;;;14.55;69.49
75208;BME280;63795;55.684;37.864;2023-07-13T05:35:35;98892.78;;;14.71;69.21
75208;BME280;63795;55.684;37.864;2023-07-13T05:40:36;98875.06;;;14.88;68.57
75208;BME280;63795;55.684;37.864;2023-07-13T05:45:36;98887.78;;;15.09;67.90
75208;BME280;63795;55.684;37.864;2023-07-13T05:50:37;98875.31;;;15.15;67.69
75208;BME280;63795;55.684;37.864;2023-07-13T05:55:44;98871.22;;;15.16;66.81
75208;BME280;63795;55.684;37.864;2023-07-13T06:00:45;98866.97;;;15.21;66.61
75208;BME280;63795;55.684;37.864;2023-07-13T06:05:46;98870.56;;;15.34;66.69
75208;BME280;63795;55.684;37.864;2023-07-13T06:10:46;98868.72;;;15.40;66.16
75208;BME280;63795;55.684;37.864;2023-07-13T06:15:50;98870.00;;;15.39;64.79
75208;BME280;63795;55.684;37.864;2023-07-13T06:20:50;98873.94;;;15.54;64.66
75208;BME280;63795;55.684;37.864;2023-07-13T06:25:51;98861.31;;;15.64;64.38
75208;BME280;63795;55.684;37.864;2023-07-13T06:30:52;98851.72;;;15.80;64.85
75208;BME280;63795;55.684;37.864;2023-07-13T06:35:52;98844.66;;;15.93;63.52
75208;BME280;63795;55.684;37.864;2023-07-13T06:40:54;98832.53;;;16.11;62.66
75208;BME280;63795;55.684;37.864;2023-07-13T06:45:55;98836.88;;;16.25;61.59
75208;BME280;63795;55.684;37.864;2023-07-13T06:50:56;98838.47;;;16.26;62.37
75208;BME280;63795;55.684;37.864;2023-07-13T06:55:57;98837.69;;;16.25;61.31
75208;BME280;63795;55.684;37.864;2023-07-13T07:00:57;98845.78;;;16.27;59.72
75208;BME280;63795;55.684;37.864;2023-07-13T07:06:23;98840.44;;;16.38;58.89
75208;BME280;63795;55.684;37.864;2023-07-13T07:11:25;98855.78;;;16.53;59.38
75208;BME280;63795;55.684;37.864;2023-07-13T07:16:26;98867.81;;;16.48;58.66
75208;BME280;63795;55.684;37.864;2023-07-13T07:21:27;98869.66;;;16.33;59.55
75208;BME280;63795;55.684;37.864;2023-07-13T07:26:27;98851.75;;;16.10;60.19
75208;BME280;63795;55.684;37.864;2023-07-13T07:31:28;98863.94;;;16.02;60.60
75208;BME280;63795;55.684;37.864;2023-07-13T07:36:28;98854.50;;;15.92;61.08
75208;BME280;63795;55.684;37.864;2023-07-13T07:41:29;98864.22;;;15.95;61.64
75208;BME280;63795;55.684;37.864;2023-07-13T07:46:29;98860.75;;;16.00;61.43
75208;BME280;63795;55.684;37.864;2023-07-13T07:51:30;98864.75;;;16.02;60.92
75208;BME280;63795;55.684;37.864;2023-07-13T07:56:31;98864.13;;;16.07;61.04
75208;BME280;63795;55.684;37.864;2023-07-13T08:01:32;98873.03;;;16.09;61.62
75208;BME280;63795;55.684;37.864;2023-07-13T08:06:33;98877.75;;;16.03;61.55
75208;BME280;63795;55.684;37.864;2023-07-13T08:11:33;98887.09;;;15.95;61.89
75208;BME280;63795;55.684;37.864;2023-07-13T08:16:34;98896.25;;;15.90;62.13
75208;BME280;63795;55.684;37.864;2023-07-13T08:21:34;98874.59;;;15.80;62.51
75208;BME280;63795;55.684;37.864;2023-07-13T08:26:35;98879.13;;;15.68;63.37
75208;BME280;63795;55.684;37.864;2023-07-13T08:31:36;98884.31;;;15.61;64.58
75208;BME280;63795;55.684;37.864;2023-07-13T08:36:36;98877.72;;;15.51;63.89
75208;BME280;63795;55.684;37.864;2023-07-13T08:41:37;98874.19;;;15.47;66.32
75208;BME280;63795;55.684;37.864;2023-07-13T08:46:40;98871.06;;;15.54;65.93
75208;BME280;63795;55.684;37.864;2023-07-13T08:51:57;98880.31;;;15.58;66.66
75208;BME280;63795;55.684;37.864;2023-07-13T08:57:01;98885.41;;;15.63;67.33
75208;BME280;63795;55.684;37.864;2023-07-13T09:17:17;98878.84;;;15.75;64.56
75208;BME280;63795;55.684;37.864;2023-07-13T09:22:19;98890.59;;;15.77;63.72
75208;BME280;63795;55.684;37.864;2023-07-13T09:27:29;98904.22;;;15.73;63.85
75208;BME280;63795;55.684;37.864;2023-07-13T09:32:31;98902.78;;;15.69;64.99
75208;BME280;63795;55.684;37.864;2023-07-13T09:37:33;98903.22;;;15.67;66.06
75208;BME280;63795;55.684;37.864;2023-07-13T09:42:34;98917.31;;;15.62;66.69
75208;BME280;63795;55.684;37.864;2023-07-13T09:47:39;98905.09;;;15.61;68.22
75208;BME280;63795;55.684;37.864;2023-07-13T09:52:49;98918.38;;;15.55;68.23
75208;BME280;63795;55.684;37.864;2023-07-13T09:57:49;98909.50;;;15.41;70.36
75208;BME280;63795;55.684;37.864;2023-07-13T10:03:04;98908.72;;;15.27;70.02
75208;BME280;63795;55.684;37.864;2023-07-13T10:08:05;98908.41;;;15.25;70.98
75208;BME280;63795;55.684;37.864;2023-07-13T10:13:33;98913.44;;;15.21;69.55
75208;BME280;63795;55.684;37.864;2023-07-13T10:18:46;98914.56;;;15.24;69.74
75208;BME280;63795;55.684;37.864;2023-07-13T10:23:52;98905.00;;;15.18;69.36
75208;BME280;63795;55.684;37.864;2023-07-13T10:28:57;98901.72;;;15.07;69.78
75208;BME280;63795;55.684;37.864;2023-07-13T10:33:59;98906.19;;;14.95;70.16
75208;BME280;63795;55.684;37.864;2023-07-13T10:39:03;98913.44;;;14.75;71.36
75208;BME280;63795;55.684;37.864;2023-07-13T10:44:09;98915.94;;;14.60;72.34
75208;BME280;63795;55.684;37.864;2023-07-13T10:49:12;98930.78;;;14.42;72.48
75208;BME280;63795;55.684;37.864;2023-07-13T10:59:24;98922.28;;;14.26;73.70
75208;BME280;63795;55.684;37.864;2023-07-13T11:04:27;98937.34;;;14.14;74.58
75208;BME280;63795;55.684;37.864;2023-07-13T11:09:38;98927.34;;;13.94;75.64
75208;BME280;63795;55.684;37.864;2023-07-13T11:15:01;98928.59;;;13.80;75.93
75208;BME280;63795;55.684;37.864;2023-07-13T11:25:32;98928.88;;;13.70;77.85
75208;BME280;63795;55.684;37.864;2023-07-13T11:36:05;98921.34;;;13.63;77.92
75208;BME280;63795;55.684;37.864;2023-07-13T11:41:19;98920.97;;;13.61;77.63
75208;BME280;63795;55.684;37.864;2023-07-13T11:46:26;98910.84;;;13.60;77.46
75208;BME280;63795;55.684;37.864;2023-07-13T11:51:32;98917.00;;;13.58;76.85
75208;BME280;63795;55.684;37.864;2023-07-13T11:56:33;98912.91;;;13.59;77.74
75208;BME280;63795;55.684;37.864;2023-07-13T12:01:36;98909.94;;;13.63;77.83
75208;BME280;63795;55.684;37.864;2023-07-13T12:06:42;98906.66;;;13.64;78.29
75208;BME280;63795;55.684;37.864;2023-07-13T12:11:43;98920.91;;;13.64;79.73
75208;BME280;63795;55.684;37.864;2023-07-13T12:16:45;98911.22;;;13.62;80.09
75208;BME280;63795;55.684;37.864;2023-07-13T12:21:47;98912.72;;;13.67;79.76
75208;BME280;63795;55.684;37.864;2023-07-13T12:27:01;98920.78;;;13.68;79.60
75208;BME280;63795;55.684;37.864;2023-07-13T12:32:08;98916.69;;;13.69;79.27
75208;BME280;63795;55.684;37.864;2023-07-13T12:37:11;98913.41;;;13.71;80.87
75208;BME280;63795;55.684;37.864;2023-07-13T12:42:24;98907.56;;;13.61;80.73
75208;BME280;63795;55.684;37.864;2023-07-13T12:47:28;98904.59;;;13.65;81.97
75208;BME280;63795;55.684;37.864;2023-07-13T12:52:32;98904.00;;;13.57;81.46
75208;BME280;63795;55.684;37.864;2023-07-13T12:57:39;98906.31;;;13.62;80.65
75208;BME280;63795;55.684;37.864;2023-07-13T13:02:40;98917.59;;;13.66;80.26
75208;BME280;63795;55.684;37.864;2023-07-13T13:07:40;98904.94;;;13.67;80.10
75208;BME280;63795;55.684;37.864;2023-07-13T13:12:41;98890.81;;;13.63;80.67
75208;BME280;63795;55.684;37.864;2023-07-13T13:17:45;98891.81;;;13.57;81.58
75208;BME280;63795;55.684;37.864;2023-07-13T13:22:45;98901.97;;;13.58;81.44
75208;BME280;63795;55.684;37.864;2023-07-13T13:27:46;98910.50;;;13.58;81.56
75208;BME280;63795;55.684;37.864;2023-07-13T13:32:48;98906.75;;;13.61;81.55
75208;BME280;63795;55.684;37.864;2023-07-13T13:37:48;98902.66;;;13.62;81.37
75208;BME280;63795;55.684;37.864;2023-07-13T13:42:50;98881.69;;;13.56;81.84
75208;BME280;63795;55.684;37.864;2023-07-13T13:47:53;98886.22;;;13.53;82.28
75208;BME280;63795;55.684;37.864;2023-07-13T13:52:54;98884.81;;;13.45;82.70
75208;BME280;63795;55.684;37.864;2023-07-13T13:57:55;98876.03;;;13.40;82.28
75208;BME280;63795;55.684;37.864;2023-07-13T14:02:55;98873.72;;;13.35;82.34
75208;BME280;63795;55.684;37.864;2023-07-13T14:07:57;98878.38;;;13.29;83.00
75208;BME280;63795;55.684;37.864;2023-07-13T14:12:58;98898.41;;;13.25;83.45
75208;BME280;63795;55.684;37.864;2023-07-13T14:17:59;98878.25;;;13.20;83.34
75208;BME280;63795;55.684;37.864;2023-07-13T14:22:59;98881.44;;;13.22;83.07
75208;BME280;63795;55.684;37.864;2023-07-13T14:28:04;98900.19;;;13.19;84.02
75208;BME280;63795;55.684;37.864;2023-07-13T14:33:13;98870.94;;;13.19;83.24
75208;BME280;63795;55.684;37.864;2023-07-13T14:38:18;98858.31;;;13.20;83.04
75208;BME280;63795;55.684;37.864;2023-07-13T14:43:19;98864.53;;;13.15;84.31
75208;BME280;63795;55.684;37.864;2023-07-13T14:48:23;98874.22;;;13.17;84.24
75208;BME280;63795;55.684;37.864;2023-07-13T14:53:26;98875.41;;;13.20;84.74
75208;BME280;63795;55.684;37.864;2023-07-13T14:58:30;98870.06;;;13.22;84.10
75208;BME280;63795;55.684;37.864;2023-07-13T15:03:32;98856.88;;;13.28;84.49
75208;BME280;63795;55.684;37.864;2023-07-13T15:08:33;98858.25;;;13.36;83.47
75208;BME280;63795;55.684;37.864;2023-07-13T15:13:34;98860.53;;;13.41;82.81
75208;BME280;63795;55.684;37.864;2023-07-13T15:18:35;98868.19;;;13.44;83.58
75208;BME280;63795;55.684;37.864;2023-07-13T15:23:41;98873.53;;;13.42;84.09
75208;BME280;63795;55.684;37.864;2023-07-13T15:28:45;98884.94;;;13.42;84.16
75208;BME280;63795;55.684;37.864;2023-07-13T15:33:46;98879.13;;;13.45;83.38
75208;BME280;63795;55.684;37.864;2023-07-13T15:38:51;98874.25;;;13.46;84.04
75208;BME280;63795;55.684;37.864;2023-07-13T15:43:55;98868.09;;;13.47;84.15
75208;BME280;63795;55.684;37.864;2023-07-13T15:48:57;98875.28;;;13.52;83.09
75208;BME280;63795;55.684;37.864;2023-07-13T15:54:03;98870.28;;;13.56;84.35
75208;BME280;63795;55.684;37.864;2023-07-13T15:59:05;98850.91;;;13.51;83.92
75208;BME280;63795;55.684;37.864;2023-07-13T16:04:06;98860.94;;;13.55;84.02
75208;BME280;63795;55.684;37.864;2023-07-13T16:09:10;98868.69;;;13.55;83.28
75208;BME280;63795;55.684;37.864;2023-07-13T16:14:14;98862.97;;;13.55;84.44
75208;BME280;63795;55.684;37.864;2023-07-13T16:19:15;98856.94;;;13.53;84.55
75208;BME280;63795;55.684;37.864;2023-07-13T16:24:20;98857.50;;;13.48;85.22
75208;BME280;63795;55.684;37.864;2023-07-13T16:29:26;98856.47;;;13.42;85.76
75208;BME280;63795;55.684;37.864;2023-07-13T16:34:28;98857.34;;;13.39;85.37
75208;BME280;63795;55.684;37.864;2023-07-13T16:39:28;98844.56;;;13.31;84.90
75208;BME280;63795;55.684;37.864;2023-07-13T16:44:31;98853.03;;;13.34;85.97
75208;BME280;63795;55.684;37.864;2023-07-13T16:49:34;98861.47;;;13.38;86.61
75208;BME280;63795;55.684;37.864;2023-07-13T16:54:38;98849.72;;;13.36;86.68
75208;BME280;63795;55.684;37.864;2023-07-13T16:59:39;98849.38;;;13.34;86.42
75208;BME280;63795;55.684;37.864;2023-07-13T17:04:39;98838.88;;;13.31;85.49
75208;BME280;63795;55.684;37.864;2023-07-13T17:09:41;98842.75;;;13.24;85.84
75208;BME280;63795;55.684;37.864;2023-07-13T17:14:46;98828.41;;;13.28;87.80
75208;BME280;63795;55.684;37.864;2023-07-13T17:19:51;98837.06;;;13.24;88.35
75208;BME280;63795;55.684;37.864;2023-07-13T17:24:52;98836.78;;;13.19;88.17
75208;BME280;63795;55.684;37.864;2023-07-13T17:29:53;98840.88;;;13.18;87.90
75208;BME280;63795;55.684;37.864;2023-07-13T17:34:54;98848.09;;;13.22;88.56
75208;BME280;63795;55.684;37.864;2023-07-13T17:39:54;98844.91;;;13.20;88.54
75208;BME280;63795;55.684;37.864;2023-07-13T17:44:55;98853.78;;;13.22;88.70
75208;BME280;63795;55.684;37.864;2023-07-13T17:49:55;98848.88;;;13.23;88.65
75208;BME280;63795;55.684;37.864;2023-07-13T17:54:59;98833.94;;;13.19;88.34
75208;BME280;63795;55.684;37.864;2023-07-13T18:00:02;98834.63;;;13.23;88.16
75208;BME280;63795;55.684;37.864;2023-07-13T18:05:17;98848.88;;;13.23;88.92
75208;BME280;63795;55.684;37.864;2023-07-13T18:10:20;98840.78;;;13.21;89.42
75208;BME280;63795;55.684;37.864;2023-07-13T18:15:24;98841.59;;;13.22;88.95
75208;BME280;63795;55.684;37.864;2023-07-13T18:20:27;98852.88;;;13.25;89.70
75208;BME280;63795;55.684;37.864;2023-07-13T18:25:27;98859.38;;;13.26;89.83
75208;BME280;63795;55.684;37.864;2023-07-13T18:30:29;98865.88;;;13.26;89.70
75208;BME280;63795;55.684;37.864;2023-07-13T18:35:32;98860.94;;;13.27;89.68
75208;BME280;63795;55.684;37.864;2023-07-13T18:40:33;98869.84;;;13.29;89.32
75208;BME280;63795;55.684;37.864;2023-07-13T18:45:34;98865.75;;;13.30;89.35
75208;BME280;63795;55.684;37.864;2023-07-13T18:50:34;98876.22;;;13.33;89.12
75208;BME280;63795;55.684;37.864;2023-07-13T18:55:43;98886.72;;;13.36;89.68
75208;BME280;63795;55.684;37.864;2023-07-13T19:00:49;98871.59;;;13.39;90.40
75208;BME280;63795;55.684;37.864;2023-07-13T19:05:50;98870.00;;;13.38;89.54
75208;BME280;63795;55.684;37.864;2023-07-13T19:10:52;98863.84;;;13.39;90.32
75208;BME280;63795;55.684;37.864;2023-07-13T19:15:54;98847.56;;;13.40;90.54
75208;BME280;63795;55.684;37.864;2023-07-13T19:20:56;98880.94;;;13.39;90.65
75208;BME280;63795;55.684;37.864;2023-07-13T19:26:04;98874.44;;;13.39;90.59
75208;BME280;63795;55.684;37.864;2023-07-13T19:31:14;98857.69;;;13.41;90.62
75208;BME280;63795;55.684;37.864;2023-07-13T19:36:20;98867.84;;;13.42;89.72
75208;BME280;63795;55.684;37.864;2023-07-13T19:41:22;98868.66;;;13.42;89.76
75208;BME280;63795;55.684;37.864;2023-07-13T19:46:29;98859.84;;;13.37;89.35
75208;BME280;63795;55.684;37.864;2023-07-13T19:51:33;98864.66;;;13.40;89.60
75208;BME280;63795;55.684;37.864;2023-07-13T19:56:33;98873.31;;;13.49;89.19
75208;BME280;63795;55.684;37.864;2023-07-13T20:01:34;98880.63;;;13.50;89.52
75208;BME280;63795;55.684;37.864;2023-07-13T20:06:35;98881.78;;;13.52;89.68
75208;BME280;63795;55.684;37.864;2023-07-13T20:11:37;98894.66;;;13.57;89.25
75208;BME280;63795;55.684;37.864;2023-07-13T20:16:38;98891.03;;;13.56;88.97
75208;BME280;63795;55.684;37.864;2023-07-13T20:21:38;98891.81;;;13.57;89.24
75208;BME280;63795;55.684;37.864;2023-07-13T20:26:39;98885.34;;;13.56;88.33
75208;BME280;63795;55.684;37.864;2023-07-13T20:31:40;98894.22;;;13.58;88.23
75208;BME280;63795;55.684;37.864;2023-07-13T20:36:41;98900.69;;;13.59;87.90
75208;BME280;63795;55.684;37.864;2023-07-13T20:41:41;98904.00;;;13.57;87.63
75208;BME280;63795;55.684;37.864;2023-07-13T20:46:42;98908.00;;;13.60;87.31
75208;BME280;63795;55.684;37.864;2023-07-13T20:51:44;98893.97;;;13.53;87.56
75208;BME280;63795;55.684;37.864;2023-07-13T20:56:50;98901.97;;;13.58;87.53
75208;BME280;63795;55.684;37.864;2023-07-13T21:01:51;98895.56;;;13.54;87.12
75208;BME280;63795;55.684;37.864;2023-07-13T21:06:51;98890.22;;;13.56;87.20
75208;BME280;63795;55.684;37.864;2023-07-13T21:11:52;98891.56;;;13.51;87.28
75208;BME280;63795;55.684;37.864;2023-07-13T21:16:52;98897.16;;;13.55;86.88
75208;BME280;63795;55.684;37.864;2023-07-13T21:21:53;98898.41;;;13.54;86.66
75208;BME280;63795;55.684;37.864;2023-07-13T21:26:53;98893.97;;;13.53;86.70
75208;BME280;63795;55.684;37.864;2023-07-13T21:31:54;98885.06;;;13.51;86.89
75208;BME280;63795;55.684;37.864;2023-07-13T21:36:55;98890.34;;;13.52;86.91
75208;BME280;63795;55.684;37.864;2023-07-13T21:41:58;98893.97;;;13.53;86.61
75208;BME280;63795;55.684;37.864;2023-07-13T21:47:01;98889.19;;;13.50;86.51
75208;BME280;63795;55.684;37.864;2023-07-13T21:52:09;98889.53;;;13.52;86.35
75208;BME280;63795;55.684;37.864;2023-07-13T21:57:15;98882.22;;;13.51;86.76
75208;BME280;63795;55.684;37.864;2023-07-13T22:02:16;98878.94;;;13.52;86.96
75208;BME280;63795;55.684;37.864;2023-07-13T22:07:16;98874.59;;;13.48;86.27
75208;BME280;63795;55.684;37.864;2023-07-13T22:12:17;98892.03;;;13.50;85.87
75208;BME280;63795;55.684;37.864;2023-07-13T22:17:17;98896.47;;;13.51;86.33
75208;BME280;63795;55.684;37.864;2023-07-13T22:22:18;98880.28;;;13.48;86.32
75208;BME280;63795;55.684;37.864;2023-07-13T22:27:18;98885.63;;;13.46;86.36
75208;BME280;63795;55.684;37.864;2023-07-13T22:32:18;98891.78;;;13.44;86.88
75208;BME280;63795;55.684;37.864;2023-07-13T22:37:19;98885.81;;;13.39;86.29
75208;BME280;63795;55.684;37.864;2023-07-13T22:42:20;98884.59;;;13.40;86.51
75208;BME280;63795;55.684;37.864;2023-07-13T22:47:20;98880.59;;;13.37;86.59
75208;BME280;63795;55.684;37.864;2023-07-13T22:52:21;98876.94;;;13.37;86.64
75208;BME280;63795;55.684;37.864;2023-07-13T22:57:22;98883.44;;;13.37;86.52
75208;BME280;63795;55.684;37.864;2023-07-13T23:02:24;98879.78;;;13.37;86.44
75208;BME280;63795;55.684;37.864;2023-07-13T23:07:25;98874.09;;;13.37;87.07
75208;BME280;63795;55.684;37.864;2023-07-13T23:12:26;98860.88;;;13.30;86.84
75208;BME280;63795;55.684;37.864;2023-07-13T23:17:30;98873.72;;;13.35;87.26
75208;BME280;63795;55.684;37.864;2023-07-13T23:22:30;98865.53;;;13.37;86.59
75208;BME280;63795;55.684;37.864;2023-07-13T23:27:31;98873.66;;;13.38;87.18
75208;BME280;63795;55.684;37.864;2023-07-13T23:32:31;98874.78;;;13.41;87.46
75208;BME280;63795;55.684;37.864;2023-07-13T23:37:32;98869.91;;;13.41;86.73
75208;BME280;63795;55.684;37.864;2023-07-13T23:42:32;98879.13;;;13.45;87.08
75208;BME280;63795;55.684;37.864;2023-07-13T23:47:33;98878.31;;;13.45;87.16
75208;BME280;63795;55.684;37.864;2023-07-13T23:52:34;98869.78;;;13.45;86.76
75208;BME280;63795;55.684;37.864;2023-07-13T23:57:34;98868.09;;;13.47;86.94
